Time;durP1;ratioP1;P1;durP2;ratioP2;P2;SDS_P1;SDS_P2;PMS_P1;PMS_P2;Temp;Humidity;BMP_temperature;BMP_pressure;BME280_temperature;BME280_humidity;BME280_pressure;Samples;Min_cycle;Max_cycle;Signal;HPM_P1;HPM_P2
2023/09/26 00:00:56;;;;;;;7.50;6.80;;;12.60;99.90;;;;;;5009527;28;20661;-71
2023/09/26 00:03:21;;;;;;;8.17;7.47;;;12.60;99.90;;;;;;5012069;28;20274;-71
2023/09/26 00:05:48;;;;;;;7.30;5.97;;;12.50;99.90;;;;;;5016131;28;20201;-72
2023/09/26 00:08:14;;;;;;;10.23;7.03;;;12.50;99.90;;;;;;5016946;28;20179;-71
2023/09/26 00:10:40;;;;;;;6.67;6.13;;;12.50;99.90;;;;;;5008683;28;20803;-71
2023/09/26 00:13:05;;;;;;;6.73;6.23;;;12.50;99.90;;;;;;5012954;28;20548;-70
2023/09/26 00:15:31;;;;;;;6.37;5.77;;;12.50;99.90;;;;;;5013565;28;20171;-71
2023/09/26 00:17:57;;;;;;;10.10;9.30;;;12.40;99.90;;;;;;5017874;28;20600;-71
2023/09/26 00:20:28;;;;;;;6.30;5.80;;;12.40;99.90;;;;;;5013685;28;20186;-71
2023/09/26 00:22:56;;;;;;;6.53;6.00;;;12.40;99.90;;;;;;5012755;28;20445;-71
2023/09/26 00:25:25;;;;;;;6.70;6.00;;;12.40;99.90;;;;;;5015552;28;20829;-71
2023/09/26 00:27:52;;;;;;;6.37;5.87;;;12.40;99.90;;;;;;5012428;28;20470;-71
2023/09/26 00:30:18;;;;;;;7.13;6.53;;;12.30;99.90;;;;;;5005749;28;20470;-71
2023/09/26 00:32:44;;;;;;;7.63;7.03;;;12.30;99.90;;;;;;5009279;28;20459;-71
2023/09/26 00:35:13;;;;;;;6.83;6.23;;;12.20;99.90;;;;;;5011330;28;20206;-71
2023/09/26 00:37:42;;;;;;;6.67;6.07;;;12.30;99.90;;;;;;5012130;28;20815;-74
2023/09/26 00:40:10;;;;;;;6.40;5.80;;;12.30;99.90;;;;;;5009274;28;20445;-71
2023/09/26 00:42:36;;;;;;;6.77;6.17;;;12.20;99.90;;;;;;5011385;28;20500;-72
2023/09/26 00:45:02;;;;;;;7.33;6.63;;;12.20;99.90;;;;;;5010615;28;20449;-71
2023/09/26 00:47:27;;;;;;;6.60;6.10;;;12.20;99.90;;;;;;5012840;28;20186;-71
2023/09/26 00:49:53;;;;;;;6.83;6.23;;;12.20;99.90;;;;;;5008331;28;20549;-71
2023/09/26 00:52:19;;;;;;;9.00;5.80;;;12.30;99.90;;;;;;5008497;28;20710;-72
2023/09/26 00:54:44;;;;;;;7.10;5.90;;;12.20;99.90;;;;;;5012218;28;20179;-71
2023/09/26 00:57:10;;;;;;;6.30;5.80;;;12.10;99.90;;;;;;5010135;28;20266;-71
2023/09/26 00:59:39;;;;;;;6.40;5.80;;;12.10;99.90;;;;;;5011868;28;20221;-71
2023/09/26 01:02:05;;;;;;;7.00;6.40;;;12.10;99.90;;;;;;5007165;28;20485;-71
2023/09/26 01:04:31;;;;;;;6.80;6.20;;;12.10;99.90;;;;;;5013163;28;20492;-71
2023/09/26 01:06:56;;;;;;;6.70;6.00;;;12.10;99.90;;;;;;5023597;28;20193;-71
2023/09/26 01:09:23;;;;;;;6.03;5.53;;;12.00;99.90;;;;;;5012565;28;20418;-71
2023/09/26 01:11:48;;;;;;;6.50;6.00;;;12.00;99.90;;;;;;5007051;28;20709;-72
2023/09/26 01:14:14;;;;;;;6.10;5.60;;;12.00;99.90;;;;;;5011165;28;20764;-71
2023/09/26 01:16:39;;;;;;;6.13;5.73;;;11.90;99.90;;;;;;5021415;28;20186;-71
2023/09/26 01:19:05;;;;;;;5.60;5.20;;;12.00;99.90;;;;;;5023297;28;20186;-71
2023/09/26 01:21:32;;;;;;;6.60;6.10;;;12.00;99.90;;;;;;5013530;28;20203;-71
2023/09/26 01:23:57;;;;;;;6.97;6.47;;;12.00;99.90;;;;;;5012096;28;20673;-72
2023/09/26 01:26:24;;;;;;;7.63;6.90;;;12.00;99.90;;;;;;5010404;28;20473;-71
2023/09/26 01:28:49;;;;;;;7.37;6.87;;;12.00;99.90;;;;;;5010617;28;20191;-71
2023/09/26 01:31:15;;;;;;;7.23;6.60;;;11.90;99.90;;;;;;5006565;28;20490;-71
2023/09/26 01:33:41;;;;;;;6.93;6.23;;;11.90;99.90;;;;;;5009300;28;20197;-72
2023/09/26 01:36:07;;;;;;;7.10;6.60;;;11.80;99.90;;;;;;5011350;28;20529;-71
2023/09/26 01:38:32;;;;;;;6.67;6.10;;;11.80;99.90;;;;;;5010840;28;20261;-72
2023/09/26 01:40:58;;;;;;;6.90;6.30;;;11.80;99.90;;;;;;5008790;28;20204;-71
2023/09/26 01:43:25;;;;;;;7.87;7.17;;;11.80;99.90;;;;;;5010025;28;20652;-71
2023/09/26 01:45:51;;;;;;;7.43;6.80;;;11.90;99.90;;;;;;5010705;28;20186;-71
2023/09/26 01:48:16;;;;;;;7.17;6.57;;;11.80;99.90;;;;;;5011406;28;20955;-71
2023/09/26 01:50:42;;;;;;;7.40;6.80;;;11.80;99.90;;;;;;5009735;28;20472;-71
2023/09/26 01:53:13;;;;;;;8.90;8.00;;;11.70;99.90;;;;;;5006657;28;20212;-72
2023/09/26 01:55:39;;;;;;;7.57;6.87;;;11.70;99.90;;;;;;5008149;28;20210;-71
2023/09/26 01:58:05;;;;;;;7.80;7.10;;;11.70;99.90;;;;;;5011464;28;20867;-72
2023/09/26 02:00:30;;;;;;;9.10;7.77;;;11.70;99.90;;;;;;5012671;28;20179;-71
2023/09/26 02:02:57;;;;;;;7.03;6.53;;;11.70;99.90;;;;;;5004872;28;20214;-70
2023/09/26 02:05:23;;;;;;;8.60;7.83;;;11.70;99.90;;;;;;5009963;28;20187;-70
2023/09/26 02:07:49;;;;;;;7.90;7.13;;;11.70;99.90;;;;;;5011051;28;20519;-70
2023/09/26 02:10:16;;;;;;;7.40;6.80;;;11.70;99.90;;;;;;5013649;28;20206;-70
2023/09/26 02:12:44;;;;;;;8.00;7.30;;;11.60;99.90;;;;;;5008060;28;20472;-70
2023/09/26 02:15:12;;;;;;;7.77;7.00;;;11.70;99.90;;;;;;5019950;28;20422;-70
2023/09/26 02:17:39;;;;;;;7.63;7.03;;;11.70;99.90;;;;;;5031369;28;20417;-70
2023/09/26 02:20:12;;;;;;;6.90;6.40;;;11.70;99.90;;;;;;5019640;28;20524;-71
2023/09/26 02:22:41;;;;;;;7.63;7.03;;;11.70;99.90;;;;;;5010411;28;20838;-70
2023/09/26 02:25:08;;;;;;;7.40;6.70;;;11.70;99.90;;;;;;5019713;28;20464;-70
2023/09/26 02:27:34;;;;;;;8.20;7.40;;;11.60;99.90;;;;;;5010898;28;20969;-70
2023/09/26 02:30:00;;;;;;;7.17;6.57;;;11.60;99.90;;;;;;5010356;28;20599;-69
2023/09/26 02:32:25;;;;;;;7.53;6.83;;;11.50;99.90;;;;;;5008305;28;20305;-71
2023/09/26 02:34:51;;;;;;;8.07;7.27;;;11.50;99.90;;;;;;5015155;28;20186;-70
2023/09/26 02:37:16;;;;;;;7.37;6.77;;;11.60;99.90;;;;;;5014206;28;20190;-73
2023/09/26 02:39:42;;;;;;;8.20;7.47;;;11.60;99.90;;;;;;5016585;28;20199;-71
2023/09/26 02:42:07;;;;;;;9.10;8.20;;;11.50;99.90;;;;;;5015159;28;20231;-70
2023/09/26 02:44:33;;;;;;;8.53;7.73;;;11.50;99.90;;;;;;5023813;28;20234;-70
2023/09/26 02:46:58;;;;;;;7.77;7.17;;;11.50;99.90;;;;;;5026235;28;20240;-70
2023/09/26 02:49:24;;;;;;;8.33;7.63;;;11.50;99.90;;;;;;5021183;28;20266;-71
2023/09/26 02:51:49;;;;;;;7.67;6.97;;;11.60;99.90;;;;;;5012595;28;20715;-70
2023/09/26 02:54:15;;;;;;;8.20;7.50;;;11.50;99.90;;;;;;5013575;28;20645;-70
2023/09/26 02:56:40;;;;;;;7.30;6.70;;;11.50;99.90;;;;;;5021000;28;20213;-70
2023/09/26 02:59:06;;;;;;;7.30;6.60;;;11.40;99.90;;;;;;5024124;28;20253;-70
2023/09/26 03:01:31;;;;;;;7.13;6.53;;;11.30;99.90;;;;;;5013774;28;20309;-70
2023/09/26 03:03:57;;;;;;;10.70;8.00;;;11.30;99.90;;;;;;5013625;28;20197;-70
2023/09/26 03:06:23;;;;;;;7.47;6.87;;;11.30;99.90;;;;;;5024212;28;20186;-70
2023/09/26 03:08:48;;;;;;;8.60;7.90;;;11.30;99.90;;;;;;5027673;28;20184;-71
2023/09/26 03:11:14;;;;;;;8.47;7.67;;;11.30;99.90;;;;;;5014694;28;20309;-70
2023/09/26 03:13:39;;;;;;;7.00;6.30;;;11.30;99.90;;;;;;5012737;28;20199;-70
2023/09/26 03:16:08;;;;;;;7.37;6.70;;;11.20;99.90;;;;;;5017229;28;20175;-70
2023/09/26 03:18:35;;;;;;;8.70;7.80;;;11.30;99.90;;;;;;5033811;28;20174;-70
2023/09/26 03:21:04;;;;;;;8.60;7.70;;;11.20;99.90;;;;;;5012609;28;20799;-69
2023/09/26 03:23:30;;;;;;;8.40;7.70;;;11.10;99.90;;;;;;5012088;28;20448;-70
2023/09/26 03:25:56;;;;;;;8.40;7.70;;;11.20;99.90;;;;;;5010196;28;20442;-69
2023/09/26 03:28:21;;;;;;;8.57;7.87;;;11.20;99.90;;;;;;5014433;28;20182;-70
2023/09/26 03:30:47;;;;;;;9.03;7.80;;;11.20;99.90;;;;;;5015424;28;20205;-70
2023/09/26 03:33:12;;;;;;;8.60;7.70;;;11.10;99.90;;;;;;5013266;28;20191;-70
2023/09/26 03:35:38;;;;;;;8.20;7.50;;;11.10;99.90;;;;;;5013985;28;20193;-69
2023/09/26 03:38:03;;;;;;;8.70;7.80;;;11.10;99.90;;;;;;5018936;28;20186;-70
2023/09/26 03:40:29;;;;;;;9.63;8.80;;;11.10;99.90;;;;;;5019797;28;20198;-71
2023/09/26 03:42:55;;;;;;;10.40;9.43;;;11.10;99.90;;;;;;5013921;28;20436;-69
2023/09/26 03:45:24;;;;;;;10.03;9.13;;;11.10;99.90;;;;;;5022040;28;20182;-70
2023/09/26 03:47:50;;;;;;;9.43;8.43;;;11.20;99.90;;;;;;5025621;28;20178;-72
2023/09/26 03:50:15;;;;;;;8.80;8.00;;;11.30;99.90;;;;;;5021007;28;20901;-70
2023/09/26 03:52:41;;;;;;;10.27;8.33;;;11.30;99.90;;;;;;5012898;28;20215;-70
2023/09/26 03:55:07;;;;;;;8.63;7.90;;;11.40;99.90;;;;;;5017796;28;20546;-70
2023/09/26 03:57:33;;;;;;;8.97;8.17;;;11.30;99.90;;;;;;5024525;28;20179;-70
2023/09/26 03:59:59;;;;;;;9.40;8.57;;;11.30;99.90;;;;;;5025683;28;20189;-70
2023/09/26 04:02:25;;;;;;;9.90;9.00;;;11.30;99.90;;;;;;5011692;28;20458;-70
2023/09/26 04:04:50;;;;;;;10.83;9.87;;;11.20;99.90;;;;;;5012346;28;20437;-69
2023/09/26 04:07:16;;;;;;;9.37;8.50;;;11.30;99.90;;;;;;5019359;28;20542;-70
2023/09/26 04:09:41;;;;;;;10.27;9.40;;;11.30;99.90;;;;;;5020203;28;20213;-70
2023/09/26 04:12:07;;;;;;;10.73;9.73;;;11.30;99.90;;;;;;5013344;28;20217;-70
2023/09/26 04:14:32;;;;;;;11.57;10.47;;;11.30;99.90;;;;;;5019553;28;20178;-70
2023/09/26 04:16:58;;;;;;;11.07;10.07;;;11.30;99.90;;;;;;5011717;28;20183;-70
2023/09/26 04:19:23;;;;;;;11.23;10.33;;;11.30;99.90;;;;;;5012306;28;20186;-70
2023/09/26 04:21:52;;;;;;;10.13;8.90;;;11.20;99.90;;;;;;5004503;28;20242;-70
2023/09/26 04:24:19;;;;;;;13.97;10.60;;;11.20;99.90;;;;;;5011423;28;20183;-70
2023/09/26 04:26:45;;;;;;;9.40;8.60;;;11.10;99.90;;;;;;5018412;28;20448;-70
2023/09/26 04:29:11;;;;;;;10.40;9.40;;;11.10;99.90;;;;;;5021757;28;20436;-70
2023/09/26 04:31:36;;;;;;;9.87;8.93;;;11.10;99.90;;;;;;5007829;28;20288;-69
2023/09/26 04:34:02;;;;;;;9.20;8.30;;;11.00;99.90;;;;;;5018621;28;20575;-71
2023/09/26 04:36:31;;;;;;;10.60;9.50;;;11.00;99.90;;;;;;5010150;28;20657;-70
2023/09/26 04:38:57;;;;;;;10.30;9.40;;;11.00;99.90;;;;;;5013053;28;20181;-70
2023/09/26 04:41:22;;;;;;;11.20;10.10;;;11.00;99.90;;;;;;5010873;28;20467;-70
2023/09/26 04:43:48;;;;;;;13.00;9.00;;;11.00;99.90;;;;;;5010009;28;20186;-70
2023/09/26 04:46:16;;;;;;;10.90;9.97;;;11.00;99.90;;;;;;5011956;28;20266;-70
2023/09/26 04:48:43;;;;;;;10.73;9.83;;;11.10;99.90;;;;;;5024417;28;20185;-70
2023/09/26 04:51:14;;;;;;;10.90;10.00;;;11.00;99.90;;;;;;5016591;28;20520;-70
2023/09/26 04:53:39;;;;;;;10.67;9.67;;;11.00;99.90;;;;;;5011300;28;20442;-69
2023/09/26 04:56:06;;;;;;;9.97;8.50;;;11.00;99.90;;;;;;5015163;28;20520;-69
2023/09/26 04:58:32;;;;;;;10.00;9.17;;;11.00;99.90;;;;;;5011425;28;20175;-71
2023/09/26 05:01:00;;;;;;;11.93;9.27;;;11.00;99.90;;;;;;5008978;28;20441;-70
2023/09/26 05:03:29;;;;;;;9.40;8.50;;;11.00;99.90;;;;;;5009827;28;20183;-71
2023/09/26 05:05:54;;;;;;;10.40;8.87;;;11.00;99.90;;;;;;5009170;28;20540;-70
2023/09/26 05:08:20;;;;;;;10.73;9.73;;;10.90;99.90;;;;;;5012277;28;20504;-69
2023/09/26 05:10:48;;;;;;;10.63;9.53;;;10.90;99.90;;;;;;5019642;28;21823;-70
2023/09/26 05:13:14;;;;;;;11.97;9.73;;;10.90;99.90;;;;;;5010433;28;20221;-72
2023/09/26 05:15:40;;;;;;;13.73;9.53;;;10.90;99.90;;;;;;5010782;28;20469;-70
2023/09/26 05:18:05;;;;;;;11.43;9.20;;;10.80;99.90;;;;;;5006832;28;20488;-71
2023/09/26 05:20:31;;;;;;;10.63;9.73;;;10.80;99.90;;;;;;5022189;28;20336;-71
2023/09/26 05:22:56;;;;;;;11.00;10.10;;;10.80;99.90;;;;;;5007666;28;20210;-69
2023/09/26 05:25:22;;;;;;;10.83;9.80;;;10.90;99.90;;;;;;5009407;28;20174;-70
2023/09/26 05:27:47;;;;;;;11.60;9.73;;;10.90;99.90;;;;;;5015950;28;20193;-70
2023/09/26 05:30:13;;;;;;;11.00;10.00;;;10.90;99.90;;;;;;5022298;28;20229;-70
2023/09/26 05:32:40;;;;;;;9.87;9.00;;;10.90;99.90;;;;;;5013363;28;20210;-70
2023/09/26 05:35:07;;;;;;;10.40;9.50;;;10.90;99.90;;;;;;5012262;28;20186;-70
2023/09/26 05:37:36;;;;;;;10.03;9.20;;;10.90;99.90;;;;;;5013817;28;20436;-70
2023/09/26 05:40:06;;;;;;;10.03;9.13;;;10.90;99.90;;;;;;5018136;28;20496;-70
2023/09/26 05:42:36;;;;;;;11.30;10.10;;;10.90;99.90;;;;;;5010808;28;20825;-71
2023/09/26 05:45:03;;;;;;;11.27;9.37;;;10.90;99.90;;;;;;5011876;28;20425;-69
2023/09/26 05:47:28;;;;;;;9.37;8.50;;;11.00;99.90;;;;;;5010834;28;20436;-70
2023/09/26 05:49:54;;;;;;;8.53;7.67;;;11.10;99.90;;;;;;5009814;28;20430;-70
2023/09/26 05:52:20;;;;;;;10.13;7.97;;;11.20;99.90;;;;;;5012852;28;20195;-70
2023/09/26 05:54:47;;;;;;;9.57;8.20;;;11.40;99.90;;;;;;5008602;28;20170;-70
2023/09/26 05:57:13;;;;;;;8.63;8.00;;;11.50;99.90;;;;;;5011812;28;20793;-71
2023/09/26 05:59:39;;;;;;;9.13;8.33;;;11.60;99.90;;;;;;5017380;28;20449;-70
2023/09/26 06:02:04;;;;;;;9.67;8.87;;;11.70;99.90;;;;;;5016356;28;20455;-70
2023/09/26 06:04:30;;;;;;;8.87;8.00;;;11.90;99.90;;;;;;5009610;28;20171;-70
2023/09/26 06:06:56;;;;;;;9.20;8.30;;;12.20;99.90;;;;;;5008013;28;20476;-70
2023/09/26 06:09:22;;;;;;;8.27;7.47;;;12.30;99.90;;;;;;5009952;28;20187;-71
2023/09/26 06:11:47;;;;;;;9.50;8.47;;;12.40;99.90;;;;;;5014022;28;20873;-70
2023/09/26 06:14:13;;;;;;;13.00;8.00;;;12.60;99.90;;;;;;5007830;28;20262;-69
2023/09/26 06:16:39;;;;;;;8.97;8.07;;;12.70;99.90;;;;;;5009943;28;20185;-70
2023/09/26 06:19:05;;;;;;;8.87;8.00;;;12.90;99.90;;;;;;5010292;28;20174;-70
2023/09/26 06:21:30;;;;;;;9.90;8.90;;;13.20;99.90;;;;;;5013006;28;20469;-69
2023/09/26 06:23:56;;;;;;;8.70;7.90;;;13.30;99.90;;;;;;5011889;28;20813;-70
2023/09/26 06:26:22;;;;;;;8.00;7.30;;;13.50;99.90;;;;;;5011153;28;20182;-69
2023/09/26 06:28:48;;;;;;;8.73;7.93;;;13.60;99.90;;;;;;5015518;28;20178;-70
2023/09/26 06:31:14;;;;;;;10.90;7.80;;;13.80;99.90;;;;;;5008532;28;20458;-71
2023/09/26 06:33:39;;;;;;;10.80;7.90;;;14.00;99.90;;;;;;5011599;28;20187;-69
2023/09/26 06:36:12;;;;;;;8.73;7.90;;;13.90;99.90;;;;;;5009873;28;20508;-69
2023/09/26 06:38:38;;;;;;;9.63;7.50;;;13.80;99.90;;;;;;5015226;28;20171;-69
2023/09/26 06:41:22;;;;;;;8.73;7.93;;;14.00;99.90;;;;;;5015300;28;20425;-70
2023/09/26 06:43:47;;;;;;;8.87;7.80;;;14.00;99.90;;;;;;5013423;28;20302;-69
2023/09/26 06:46:49;;;;;;;7.57;6.93;;;14.10;99.90;;;;;;5015301;28;20500;-68
2023/09/26 06:49:29;;;;;;;8.63;7.83;;;14.20;99.90;;;;;;5006296;28;20194;-70
2023/09/26 06:51:55;;;;;;;7.23;6.33;;;14.60;99.90;;;;;;4995456;28;20556;-71
2023/09/26 06:54:20;;;;;;;7.47;6.73;;;15.00;99.90;;;;;;5006240;28;20521;-71
2023/09/26 06:56:46;;;;;;;7.23;6.60;;;15.40;99.90;;;;;;5015106;28;20518;-72
2023/09/26 06:59:11;;;;;;;9.00;7.80;;;15.70;99.90;;;;;;5015181;28;20190;-71
2023/09/26 07:01:38;;;;;;;8.60;7.70;;;15.80;99.90;;;;;;5015017;28;20187;-71
2023/09/26 07:04:04;;;;;;;8.73;7.87;;;16.00;99.90;;;;;;5013523;28;20214;-70
2023/09/26 07:06:30;;;;;;;11.10;9.97;;;16.20;99.90;;;;;;5014837;28;20453;-70
2023/09/26 07:08:57;;;;;;;8.90;8.00;;;16.30;99.90;;;;;;5015158;28;20167;-70
2023/09/26 07:11:23;;;;;;;10.67;9.67;;;16.50;99.90;;;;;;5014568;28;20891;-70
2023/09/26 07:13:48;;;;;;;10.40;9.37;;;16.70;99.90;;;;;;5011163;28;20437;-70
2023/09/26 07:16:14;;;;;;;19.63;8.60;;;16.90;99.90;;;;;;5008838;28;20206;-71
2023/09/26 07:18:40;;;;;;;7.60;6.80;;;17.20;99.90;;;;;;5013452;28;20202;-70
2023/09/26 07:21:07;;;;;;;7.70;7.00;;;17.40;99.90;;;;;;5014097;28;20167;-70
2023/09/26 07:23:34;;;;;;;7.50;6.97;;;17.60;99.90;;;;;;5012622;28;20171;-70
2023/09/26 07:26:12;;;;;;;7.40;6.63;;;17.90;99.90;;;;;;5012415;28;20918;-70
2023/09/26 07:28:41;;;;;;;7.10;6.40;;;18.10;99.90;;;;;;5014436;28;20556;-71
2023/09/26 07:31:09;;;;;;;8.53;7.20;;;18.10;99.90;;;;;;5012443;28;20993;-70
2023/09/26 07:33:34;;;;;;;9.53;6.10;;;18.20;99.90;;;;;;5011686;28;20522;-74
2023/09/26 07:36:00;;;;;;;7.20;6.60;;;18.30;99.90;;;;;;5013446;28;20467;-71
2023/09/26 07:38:26;;;;;;;7.50;6.90;;;18.40;99.90;;;;;;5013929;28;20285;-71
2023/09/26 07:40:51;;;;;;;6.67;6.03;;;18.50;99.90;;;;;;5013445;28;20214;-71
2023/09/26 07:43:17;;;;;;;5.93;5.20;;;18.50;99.90;;;;;;5012920;28;20195;-71
2023/09/26 07:45:42;;;;;;;6.10;5.50;;;18.60;99.90;;;;;;5013918;28;20171;-72
2023/09/26 07:48:09;;;;;;;5.03;4.63;;;18.90;99.90;;;;;;5014003;28;20179;-72
2023/09/26 07:50:34;;;;;;;9.70;5.17;;;19.20;99.90;;;;;;5014076;28;20199;-71
2023/09/26 07:53:02;;;;;;;7.00;6.27;;;19.60;99.90;;;;;;5012691;28;20799;-72
2023/09/26 07:55:28;;;;;;;6.47;5.97;;;20.00;99.90;;;;;;5013993;28;20602;-71
2023/09/26 07:57:54;;;;;;;10.93;6.33;;;20.10;99.90;;;;;;5013043;28;20779;-71
2023/09/26 08:00:19;;;;;;;6.67;6.07;;;20.10;99.90;;;;;;5013705;28;20425;-71
2023/09/26 08:02:45;;;;;;;6.37;5.77;;;20.20;99.90;;;;;;5012474;28;20201;-71
2023/09/26 08:05:11;;;;;;;6.93;6.30;;;20.30;99.90;;;;;;5013475;28;20245;-72
2023/09/26 08:07:43;;;;;;;6.67;6.17;;;20.50;99.90;;;;;;5013773;28;20594;-71
2023/09/26 08:10:09;;;;;;;8.13;6.27;;;20.60;99.90;;;;;;5013737;28;20462;-72
2023/09/26 08:12:37;;;;;;;6.33;5.93;;;20.80;99.90;;;;;;5013255;28;21037;-72
2023/09/26 08:15:03;;;;;;;5.70;4.57;;;21.10;99.90;;;;;;5012475;28;20187;-72
2023/09/26 08:17:28;;;;;;;6.97;6.37;;;21.30;99.90;;;;;;5013513;28;20985;-71
2023/09/26 08:19:54;;;;;;;6.53;5.93;;;21.50;99.90;;;;;;5013440;28;20280;-70
2023/09/26 08:22:19;;;;;;;5.30;4.90;;;21.70;99.90;;;;;;5013296;28;20269;-70
2023/09/26 08:24:45;;;;;;;5.40;5.00;;;21.90;99.90;;;;;;5012024;28;20187;-70
2023/09/26 08:27:11;;;;;;;6.13;5.53;;;22.00;99.90;;;;;;5013235;28;20183;-70
2023/09/26 08:29:36;;;;;;;6.03;5.57;;;22.60;99.90;;;;;;5013167;28;20254;-70
2023/09/26 08:32:02;;;;;;;7.60;6.00;;;22.90;99.90;;;;;;5013131;28;20560;-70
2023/09/26 08:34:28;;;;;;;8.10;6.60;;;23.30;99.90;;;;;;5011842;28;20800;-71
2023/09/26 08:36:53;;;;;;;7.30;6.70;;;23.70;99.90;;;;;;5012771;28;20179;-71
2023/09/26 08:39:19;;;;;;;7.07;6.37;;;24.30;99.90;;;;;;5012876;28;20175;-71
2023/09/26 08:41:47;;;;;;;7.10;6.60;;;24.70;99.90;;;;;;5013037;28;20209;-70
2023/09/26 08:44:13;;;;;;;8.17;7.43;;;24.50;99.90;;;;;;5010679;28;20613;-71
2023/09/26 08:46:39;;;;;;;7.43;6.70;;;25.10;99.90;;;;;;5012937;28;20426;-70
2023/09/26 08:49:05;;;;;;;7.53;6.93;;;25.40;99.90;;;;;;5013139;28;20201;-71
2023/09/26 08:51:34;;;;;;;8.03;7.43;;;25.30;99.90;;;;;;5012865;28;20532;-71
2023/09/26 08:54:00;;;;;;;8.10;7.40;;;24.60;99.90;;;;;;5011589;28;20445;-71
2023/09/26 08:56:25;;;;;;;7.90;7.20;;;24.60;99.90;;;;;;5012712;28;20927;-71
2023/09/26 08:58:54;;;;;;;7.80;7.20;;;25.10;99.90;;;;;;5012903;28;20163;-71
2023/09/26 09:01:20;;;;;;;6.97;6.37;;;26.50;99.90;;;;;;5012793;28;20201;-71
2023/09/26 09:03:46;;;;;;;7.87;7.07;;;27.80;99.90;;;;;;5011424;28;20433;-72
2023/09/26 09:06:13;;;;;;;8.53;7.70;;;28.60;99.90;;;;;;5012702;28;20171;-71
2023/09/26 09:08:39;;;;;;;9.00;8.10;;;28.30;99.40;;;;;;5012776;28;20167;-71
2023/09/26 09:11:04;;;;;;;6.43;5.83;;;28.40;99.50;;;;;;5012333;28;20469;-72
2023/09/26 09:13:32;;;;;;;9.53;6.20;;;29.30;98.00;;;;;;5011484;28;20179;-72
2023/09/26 09:16:24;;;;;;;6.80;6.20;;;29.80;96.30;;;;;;5012740;28;20178;-72
2023/09/26 09:18:53;;;;;;;7.47;6.87;;;30.70;94.00;;;;;;5009714;28;20783;-72
2023/09/26 09:21:23;;;;;;;6.80;6.30;;;31.00;92.40;;;;;;5012403;28;20446;-72
2023/09/26 09:23:50;;;;;;;5.70;5.30;;;30.50;91.50;;;;;;5011055;28;20496;-72
2023/09/26 09:26:17;;;;;;;7.83;5.60;;;31.10;91.40;;;;;;5012313;28;20505;-71
2023/09/26 09:28:42;;;;;;;6.33;5.73;;;31.60;89.90;;;;;;5012491;28;20453;-72
2023/09/26 09:31:08;;;;;;;6.67;6.17;;;32.00;88.50;;;;;;5012194;28;20493;-72
2023/09/26 09:33:33;;;;;;;6.20;5.60;;;32.80;85.70;;;;;;5011192;28;20664;-73
2023/09/26 09:35:59;;;;;;;6.33;5.60;;;33.20;82.20;;;;;;5012027;28;20640;-72
2023/09/26 09:38:26;;;;;;;6.10;5.70;;;33.30;79.90;;;;;;5012324;28;20175;-72
2023/09/26 09:40:52;;;;;;;4.77;4.37;;;31.80;80.60;;;;;;5012282;28;20546;-71
2023/09/26 09:43:17;;;;;;;5.70;5.23;;;32.10;81.80;;;;;;5009538;28;20473;-72
2023/09/26 09:45:47;;;;;;;6.10;5.60;;;32.80;79.10;;;;;;5012058;28;20182;-72
2023/09/26 09:48:14;;;;;;;6.27;4.70;;;33.70;77.40;;;;;;5012123;28;20257;-69
2023/09/26 09:50:42;;;;;;;5.00;4.60;;;34.60;74.30;;;;;;5012059;28;20461;-71
2023/09/26 09:53:10;;;;;;;4.63;4.17;;;33.50;72.10;;;;;;5008159;28;20445;-71
2023/09/26 09:55:38;;;;;;;4.17;3.87;;;33.70;73.00;;;;;;5005775;28;20434;-71
2023/09/26 09:58:09;;;;;;;4.80;4.50;;;33.20;73.90;;;;;;5008151;28;20422;-71
2023/09/26 10:00:39;;;;;;;4.93;4.63;;;34.20;71.80;;;;;;5011891;28;20425;-71
2023/09/26 10:03:05;;;;;;;5.37;4.97;;;35.00;70.70;;;;;;5011679;28;20496;-70
2023/09/26 10:05:31;;;;;;;4.93;4.37;;;35.70;68.70;;;;;;5010184;28;20433;-70
2023/09/26 10:07:58;;;;;;;5.47;4.70;;;36.60;65.90;;;;;;5011879;28;20937;-71
2023/09/26 10:10:24;;;;;;;5.37;4.87;;;37.10;64.70;;;;;;5011688;28;20253;-71
2023/09/26 10:12:51;;;;;;;5.70;5.20;;;37.80;62.50;;;;;;5011290;28;20508;-69
2023/09/26 10:15:17;;;;;;;5.50;5.00;;;38.20;61.00;;;;;;5010923;28;20438;-68
2023/09/26 10:17:45;;;;;;;4.33;3.90;;;35.50;63.20;;;;;;5011779;28;20421;-69
2023/09/26 10:20:14;;;;;;;5.67;4.40;;;35.60;63.70;;;;;;5012023;28;20224;-69
2023/09/26 10:22:41;;;;;;;5.00;4.10;;;36.40;62.30;;;;;;5011554;28;20446;-70
2023/09/26 10:25:23;;;;;;;4.40;3.93;;;37.00;61.30;;;;;;5010929;28;20445;-70
2023/09/26 10:27:50;;;;;;;4.40;3.50;;;37.60;60.30;;;;;;5005108;28;20509;-69
2023/09/26 10:30:18;;;;;;;4.20;3.90;;;38.40;58.80;;;;;;5011760;28;20841;-70
2023/09/26 10:32:44;;;;;;;3.80;3.50;;;37.90;59.20;;;;;;5009301;28;20462;-68
2023/09/26 10:35:13;;;;;;;4.40;3.80;;;36.80;58.40;;;;;;5011570;28;20430;-69
2023/09/26 10:37:39;;;;;;;4.10;3.80;;;36.30;59.40;;;;;;4992232;28;20607;-69
2023/09/26 10:40:09;;;;;;;4.73;4.23;;;34.90;61.00;;;;;;4992167;28;20932;-69
2023/09/26 10:42:41;;;;;;;5.60;3.60;;;33.90;62.40;;;;;;4997102;28;20735;-69
2023/09/26 10:45:07;;;;;;;3.47;3.17;;;35.20;60.20;;;;;;5010823;28;20469;-70
2023/09/26 10:47:36;;;;;;;3.33;3.13;;;36.10;59.50;;;;;;5011772;28;20428;-70
2023/09/26 10:50:03;;;;;;;3.60;3.30;;;37.70;58.30;;;;;;5011607;28;20428;-72
2023/09/26 10:52:29;;;;;;;3.37;3.13;;;39.30;56.90;;;;;;5010575;28;20453;-71
2023/09/26 10:54:55;;;;;;;2.70;2.60;;;39.10;56.40;;;;;;5010395;28;20441;-71
2023/09/26 10:57:21;;;;;;;3.97;3.63;;;39.10;55.70;;;;;;5011510;28;20509;-72
2023/09/26 10:59:47;;;;;;;3.10;2.90;;;39.30;55.50;;;;;;5011593;28;20205;-72
2023/09/26 11:02:13;;;;;;;3.33;2.97;;;39.60;54.60;;;;;;5013642;28;20699;-71
2023/09/26 11:04:39;;;;;;;7.17;6.40;;;39.70;54.50;;;;;;5004133;28;20596;-71
2023/09/26 11:07:05;;;;;;;16.17;14.80;;;39.40;54.60;;;;;;5014277;28;20675;-71
2023/09/26 11:09:33;;;;;;;10.30;9.40;;;40.00;53.70;;;;;;5014526;28;20422;-71
2023/09/26 11:11:59;;;;;;;9.73;8.83;;;39.40;53.80;;;;;;5014996;28;20869;-71
2023/09/26 11:14:26;;;;;;;3.80;3.60;;;39.60;53.00;;;;;;5012387;28;20434;-71
2023/09/26 11:16:52;;;;;;;3.03;2.80;;;39.60;52.50;;;;;;5014734;28;20455;-71
2023/09/26 11:19:18;;;;;;;3.57;3.17;;;40.40;52.00;;;;;;5014727;28;20418;-71
2023/09/26 11:21:46;;;;;;;3.33;3.10;;;40.70;51.20;;;;;;5014747;28;20528;-71
2023/09/26 11:24:32;;;;;;;3.73;3.07;;;41.30;50.50;;;;;;5011309;28;20441;-71
2023/09/26 11:27:08;;;;;;;2.77;2.67;;;41.40;49.60;;;;;;4993723;28;20792;-71
2023/09/26 11:29:35;;;;;;;4.33;3.93;;;41.80;49.50;;;;;;4995296;28;20418;-70
2023/09/26 11:32:06;;;;;;;3.20;2.83;;;41.50;49.20;;;;;;4994735;28;20469;-71
2023/09/26 11:34:33;;;;;;;3.03;2.63;;;41.70;49.70;;;;;;5013356;28;20444;-71
2023/09/26 11:36:59;;;;;;;4.20;3.03;;;41.90;49.20;;;;;;5014186;28;20418;-71
2023/09/26 11:39:24;;;;;;;2.80;2.70;;;42.30;49.20;;;;;;5014009;28;20418;-71
2023/09/26 11:42:06;;;;;;;2.50;2.30;;;42.30;48.80;;;;;;5009947;28;20573;-71
2023/09/26 11:44:32;;;;;;;2.90;2.70;;;42.70;48.10;;;;;;5012868;28;20175;-71
2023/09/26 11:46:58;;;;;;;2.57;2.30;;;43.30;47.80;;;;;;5007380;28;20446;-72
2023/09/26 11:49:25;;;;;;;4.03;2.33;;;43.60;46.80;;;;;;5011517;28;20187;-72
2023/09/26 11:51:52;;;;;;;3.03;2.83;;;43.90;45.70;;;;;;5013872;28;20500;-72
2023/09/26 11:54:18;;;;;;;3.10;2.90;;;43.60;45.50;;;;;;5012836;28;20441;-71
2023/09/26 11:56:45;;;;;;;2.63;2.53;;;42.80;44.70;;;;;;5013785;28;20417;-71
2023/09/26 11:59:11;;;;;;;1.90;1.80;;;41.80;44.70;;;;;;5013951;28;20250;-71
2023/09/26 12:01:37;;;;;;;2.90;2.70;;;40.00;46.90;;;;;;5013790;28;20438;-71
2023/09/26 12:04:06;;;;;;;3.43;2.80;;;41.00;45.90;;;;;;5010906;28;20999;-72
2023/09/26 12:06:35;;;;;;;3.10;2.80;;;42.80;45.30;;;;;;5012491;28;20177;-71
2023/09/26 12:09:00;;;;;;;2.30;2.10;;;42.30;45.30;;;;;;5012343;28;20421;-70
2023/09/26 12:11:26;;;;;;;2.40;2.20;;;43.20;44.80;;;;;;5014033;28;20534;-71
2023/09/26 12:13:52;;;;;;;2.60;2.50;;;43.90;44.00;;;;;;5009925;28;20183;-71
2023/09/26 12:16:17;;;;;;;3.23;3.03;;;43.60;44.30;;;;;;5013519;28;20250;-71
2023/09/26 12:18:43;;;;;;;3.07;2.87;;;44.30;43.60;;;;;;5013668;28;20170;-71
2023/09/26 12:21:09;;;;;;;2.93;2.27;;;43.40;43.80;;;;;;5013510;28;20183;-70
2023/09/26 12:23:35;;;;;;;4.53;2.70;;;43.20;44.00;;;;;;5011872;28;20673;-70
2023/09/26 12:26:01;;;;;;;3.13;3.03;;;43.40;43.60;;;;;;5012374;28;20470;-71
2023/09/26 12:28:26;;;;;;;2.30;2.07;;;44.50;43.10;;;;;;5010293;28;20211;-70
2023/09/26 12:30:52;;;;;;;2.73;2.63;;;45.50;42.00;;;;;;5013416;28;20199;-71
2023/09/26 12:33:18;;;;;;;2.87;2.47;;;42.90;42.00;;;;;;5010892;28;20703;-71
2023/09/26 12:35:44;;;;;;;2.80;2.60;;;42.50;42.50;;;;;;5011845;28;20198;-71
2023/09/26 12:38:10;;;;;;;2.63;2.53;;;44.30;42.00;;;;;;5013035;28;20222;-72
2023/09/26 12:40:35;;;;;;;2.53;2.37;;;45.90;40.10;;;;;;5013121;28;20179;-72
2023/09/26 12:43:01;;;;;;;4.93;2.30;;;46.50;39.30;;;;;;5011923;28;20249;-70